Main page
METAR-TAF:

METAR-TAF

Airports :

Qurghonteppa, Tajikistan

Qurghonteppa International Airport

latitude: 37-51-44N, longitude: 068-51-46E, elevation: 449 m

Current weather observation

The report was made 15 minutes ago, at 02:30 UTC
Calm wind
Temperature 35°C
Humidity 40%
Pressure 1002 hPa
Visibility 10 km or more

METAR: UTDT 240230Z 00000MPS 9999 NSC 29/14 Q1002 35////// RMK QFE713/0950

Time: 07:45 (02:45 UTC)

Forecast

The report was made 2 hours and 45 minutes ago, at 00:00 UTC
Forecast valid from 24 at 01 UTC to 24 at 10 UTC
Wind 4 kt from variable directions
Visibility: 6000 m
Few clouds at a height of 6600 ft
Scattered clouds at a height of 15000 ft
Temporary
from 24 at 04 UTC to 24 at 10 UTC
Wind 12 kt from the South/Southwest

TAF: UTDT 240000Z 2401/2410 VRB02MPS 6000 FEW066 SCT150 TEMPO 2404/2410 21006MPS

Weather observations and forecasts of more than 4000 airports (METAR and TAF reports).

The available stations are represented by yellow and red dots on the map.

Hover mouse over dot to see the name of the station.

Then click to see weather observations and forecasts.

To change the map : click on the green buttons with a black cross to zoom in, on the green button with a dash to zoom out, or on the green arrows for adjacent maps.


METAR-TAF: